sensor_id;sensor_type;location;lat;lon;timestamp;P1;durP1;ratioP1;P2;durP2;ratioP2
39256;SDS011;67272;48.066;11.038;2023-10-13T00:00:40;4.60;;;2.38;;
39256;SDS011;67272;48.066;11.038;2023-10-13T00:03:06;3.05;;;2.40;;
39256;SDS011;67272;48.066;11.038;2023-10-13T00:05:43;3.13;;;2.33;;
39256;SDS011;67272;48.066;11.038;2023-10-13T00:08:09;4.22;;;2.50;;
39256;SDS011;67272;48.066;11.038;2023-10-13T00:10:36;2.70;;;2.20;;
39256;SDS011;67272;48.066;11.038;2023-10-13T00:13:02;3.17;;;2.45;;
39256;SDS011;67272;48.066;11.038;2023-10-13T00:15:38;5.15;;;2.25;;
39256;SDS011;67272;48.066;11.038;2023-10-13T00:18:10;4.15;;;2.15;;
39256;SDS011;67272;48.066;11.038;2023-10-13T00:20:40;4.60;;;2.72;;
39256;SDS011;67272;48.066;11.038;2023-10-13T00:23:12;3.85;;;2.35;;
39256;SDS011;67272;48.066;11.038;2023-10-13T00:25:50;6.00;;;2.30;;
39256;SDS011;67272;48.066;11.038;2023-10-13T00:28:28;3.38;;;2.33;;
39256;SDS011;67272;48.066;11.038;2023-10-13T00:31:01;4.40;;;2.42;;
39256;SDS011;67272;48.066;11.038;2023-10-13T00:33:36;2.40;;;2.05;;
39256;SDS011;67272;48.066;11.038;2023-10-13T00:36:06;4.38;;;2.35;;
39256;SDS011;67272;48.066;11.038;2023-10-13T00:38:34;6.28;;;2.80;;
39256;SDS011;67272;48.066;11.038;2023-10-13T00:41:03;3.85;;;2.28;;
39256;SDS011;67272;48.066;11.038;2023-10-13T00:43:52;2.67;;;2.45;;
39256;SDS011;67272;48.066;11.038;2023-10-13T00:46:33;2.83;;;2.63;;
39256;SDS011;67272;48.066;11.038;2023-10-13T00:49:01;4.07;;;2.10;;
39256;SDS011;67272;48.066;11.038;2023-10-13T00:51:33;5.78;;;2.75;;
39256;SDS011;67272;48.066;11.038;2023-10-13T00:54:18;4.00;;;2.30;;
39256;SDS011;67272;48.066;11.038;2023-10-13T00:56:52;3.67;;;2.17;;
39256;SDS011;67272;48.066;11.038;2023-10-13T00:59:39;4.47;;;2.50;;
39256;SDS011;67272;48.066;11.038;2023-10-13T01:02:10;3.78;;;2.33;;
39256;SDS011;67272;48.066;11.038;2023-10-13T01:04:55;3.15;;;2.25;;
39256;SDS011;67272;48.066;11.038;2023-10-13T01:07:23;4.20;;;2.40;;
39256;SDS011;67272;48.066;11.038;2023-10-13T01:09:50;3.42;;;2.33;;
39256;SDS011;67272;48.066;11.038;2023-10-13T01:12:22;3.72;;;2.65;;
39256;SDS011;67272;48.066;11.038;2023-10-13T01:14:50;3.03;;;2.42;;
39256;SDS011;67272;48.066;11.038;2023-10-13T01:17:16;4.22;;;2.75;;
39256;SDS011;67272;48.066;11.038;2023-10-13T01:19:46;3.28;;;2.30;;
39256;SDS011;67272;48.066;11.038;2023-10-13T01:22:14;2.65;;;2.00;;
39256;SDS011;67272;48.066;11.038;2023-10-13T01:24:40;3.47;;;2.28;;
39256;SDS011;67272;48.066;11.038;2023-10-13T01:27:07;2.78;;;2.20;;
39256;SDS011;67272;48.066;11.038;2023-10-13T01:29:54;3.60;;;2.50;;
39256;SDS011;67272;48.066;11.038;2023-10-13T01:32:54;3.90;;;2.35;;
39256;SDS011;67272;48.066;11.038;2023-10-13T01:35:25;3.30;;;2.60;;
39256;SDS011;67272;48.066;11.038;2023-10-13T01:38:00;3.28;;;2.08;;
39256;SDS011;67272;48.066;11.038;2023-10-13T01:40:27;8.40;;;2.55;;
39256;SDS011;67272;48.066;11.038;2023-10-13T01:43:01;3.28;;;2.60;;
39256;SDS011;67272;48.066;11.038;2023-10-13T01:45:32;3.08;;;2.08;;
39256;SDS011;67272;48.066;11.038;2023-10-13T01:47:59;3.15;;;2.20;;
39256;SDS011;67272;48.066;11.038;2023-10-13T01:50:26;4.75;;;2.22;;
39256;SDS011;67272;48.066;11.038;2023-10-13T01:52:57;4.03;;;2.45;;
39256;SDS011;67272;48.066;11.038;2023-10-13T01:55:45;3.35;;;2.65;;
39256;SDS011;67272;48.066;11.038;2023-10-13T01:58:15;3.25;;;2.33;;
39256;SDS011;67272;48.066;11.038;2023-10-13T02:00:46;5.38;;;2.50;;
39256;SDS011;67272;48.066;11.038;2023-10-13T02:03:22;5.07;;;2.40;;
39256;SDS011;67272;48.066;11.038;2023-10-13T02:05:49;4.80;;;2.40;;
39256;SDS011;67272;48.066;11.038;2023-10-13T02:08:22;4.70;;;2.20;;
39256;SDS011;67272;48.066;11.038;2023-10-13T02:13:17;2.72;;;2.20;;
39256;SDS011;67272;48.066;11.038;2023-10-13T02:15:44;4.22;;;2.35;;
39256;SDS011;67272;48.066;11.038;2023-10-13T02:18:17;4.20;;;2.47;;
39256;SDS011;67272;48.066;11.038;2023-10-13T02:21:10;4.85;;;2.63;;
39256;SDS011;67272;48.066;11.038;2023-10-13T02:23:40;4.75;;;2.40;;
39256;SDS011;67272;48.066;11.038;2023-10-13T02:26:25;4.93;;;2.40;;
39256;SDS011;67272;48.066;11.038;2023-10-13T02:29:04;3.83;;;2.42;;
39256;SDS011;67272;48.066;11.038;2023-10-13T02:31:37;4.30;;;2.20;;
39256;SDS011;67272;48.066;11.038;2023-10-13T02:34:04;5.28;;;2.80;;
39256;SDS011;67272;48.066;11.038;2023-10-13T02:36:34;3.38;;;2.50;;
39256;SDS011;67272;48.066;11.038;2023-10-13T02:39:14;3.03;;;2.20;;
39256;SDS011;67272;48.066;11.038;2023-10-13T02:41:56;3.45;;;2.25;;
39256;SDS011;67272;48.066;11.038;2023-10-13T02:44:26;4.28;;;2.67;;
39256;SDS011;67272;48.066;11.038;2023-10-13T02:46:56;3.22;;;2.30;;
39256;SDS011;67272;48.066;11.038;2023-10-13T02:49:23;3.78;;;2.08;;
39256;SDS011;67272;48.066;11.038;2023-10-13T02:51:51;3.88;;;2.40;;
39256;SDS011;67272;48.066;11.038;2023-10-13T02:54:18;3.90;;;2.50;;
39256;SDS011;67272;48.066;11.038;2023-10-13T02:56:45;3.35;;;2.10;;
39256;SDS011;67272;48.066;11.038;2023-10-13T02:59:25;5.28;;;2.50;;
39256;SDS011;67272;48.066;11.038;2023-10-13T03:02:27;5.57;;;2.38;;
39256;SDS011;67272;48.066;11.038;2023-10-13T03:05:09;3.38;;;2.30;;
39256;SDS011;67272;48.066;11.038;2023-10-13T03:07:36;3.85;;;2.30;;
39256;SDS011;67272;48.066;11.038;2023-10-13T03:10:08;3.75;;;2.67;;
39256;SDS011;67272;48.066;11.038;2023-10-13T03:12:39;4.13;;;2.53;;
39256;SDS011;67272;48.066;11.038;2023-10-13T03:15:09;2.72;;;2.00;;
39256;SDS011;67272;48.066;11.038;2023-10-13T03:17:47;5.85;;;2.50;;
39256;SDS011;67272;48.066;11.038;2023-10-13T03:20:14;2.67;;;2.20;;
39256;SDS011;67272;48.066;11.038;2023-10-13T03:22:55;2.80;;;2.25;;
39256;SDS011;67272;48.066;11.038;2023-10-13T03:25:22;3.47;;;2.38;;
39256;SDS011;67272;48.066;11.038;2023-10-13T03:27:55;3.28;;;2.38;;
39256;SDS011;67272;48.066;11.038;2023-10-13T03:30:22;4.07;;;2.30;;
39256;SDS011;67272;48.066;11.038;2023-10-13T03:32:55;4.38;;;2.50;;
39256;SDS011;67272;48.066;11.038;2023-10-13T03:35:22;3.33;;;2.13;;
39256;SDS011;67272;48.066;11.038;2023-10-13T03:38:05;4.00;;;2.38;;
39256;SDS011;67272;48.066;11.038;2023-10-13T03:40:58;4.15;;;2.45;;
39256;SDS011;67272;48.066;11.038;2023-10-13T03:43:46;2.80;;;2.28;;
39256;SDS011;67272;48.066;11.038;2023-10-13T03:46:18;5.18;;;2.20;;
39256;SDS011;67272;48.066;11.038;2023-10-13T03:48:47;4.47;;;2.28;;
39256;SDS011;67272;48.066;11.038;2023-10-13T03:51:22;3.65;;;2.30;;
39256;SDS011;67272;48.066;11.038;2023-10-13T03:53:56;3.80;;;2.13;;
39256;SDS011;67272;48.066;11.038;2023-10-13T03:56:24;3.55;;;2.55;;
39256;SDS011;67272;48.066;11.038;2023-10-13T03:59:16;5.72;;;2.50;;
39256;SDS011;67272;48.066;11.038;2023-10-13T04:01:47;5.28;;;2.80;;
39256;SDS011;67272;48.066;11.038;2023-10-13T04:07:14;2.88;;;2.20;;
39256;SDS011;67272;48.066;11.038;2023-10-13T04:09:59;5.22;;;2.70;;
39256;SDS011;67272;48.066;11.038;2023-10-13T04:12:45;3.63;;;2.25;;
39256;SDS011;67272;48.066;11.038;2023-10-13T04:15:30;3.65;;;2.47;;
39256;SDS011;67272;48.066;11.038;2023-10-13T04:18:08;3.75;;;2.33;;
39256;SDS011;67272;48.066;11.038;2023-10-13T04:20:59;3.78;;;2.30;;
39256;SDS011;67272;48.066;11.038;2023-10-13T04:23:44;3.97;;;2.55;;
39256;SDS011;67272;48.066;11.038;2023-10-13T04:26:39;5.57;;;2.50;;
39256;SDS011;67272;48.066;11.038;2023-10-13T04:29:25;4.65;;;2.40;;
39256;SDS011;67272;48.066;11.038;2023-10-13T04:32:15;3.78;;;2.47;;
39256;SDS011;67272;48.066;11.038;2023-10-13T04:34:56;3.58;;;2.55;;
39256;SDS011;67272;48.066;11.038;2023-10-13T04:37:38;4.18;;;2.33;;
39256;SDS011;67272;48.066;11.038;2023-10-13T04:40:26;5.05;;;2.50;;
39256;SDS011;67272;48.066;11.038;2023-10-13T04:43:00;4.30;;;2.78;;
39256;SDS011;67272;48.066;11.038;2023-10-13T04:45:42;3.95;;;2.30;;
39256;SDS011;67272;48.066;11.038;2023-10-13T04:48:23;4.65;;;2.67;;
39256;SDS011;67272;48.066;11.038;2023-10-13T04:50:58;3.80;;;2.50;;
39256;SDS011;67272;48.066;11.038;2023-10-13T04:53:44;4.40;;;2.25;;
39256;SDS011;67272;48.066;11.038;2023-10-13T04:56:32;5.93;;;2.60;;
39256;SDS011;67272;48.066;11.038;2023-10-13T04:59:17;4.75;;;2.47;;
39256;SDS011;67272;48.066;11.038;2023-10-13T05:02:03;4.85;;;2.30;;
39256;SDS011;67272;48.066;11.038;2023-10-13T05:04:49;3.63;;;2.08;;
39256;SDS011;67272;48.066;11.038;2023-10-13T05:07:36;3.63;;;2.28;;
39256;SDS011;67272;48.066;11.038;2023-10-13T05:10:21;3.58;;;2.53;;
39256;SDS011;67272;48.066;11.038;2023-10-13T05:13:06;3.33;;;2.15;;
39256;SDS011;67272;48.066;11.038;2023-10-13T05:15:52;4.20;;;2.53;;
39256;SDS011;67272;48.066;11.038;2023-10-13T05:18:43;6.80;;;2.47;;
39256;SDS011;67272;48.066;11.038;2023-10-13T05:21:28;2.85;;;2.40;;
39256;SDS011;67272;48.066;11.038;2023-10-13T05:24:14;5.35;;;2.47;;
39256;SDS011;67272;48.066;11.038;2023-10-13T05:26:59;7.60;;;2.95;;
39256;SDS011;67272;48.066;11.038;2023-10-13T05:29:44;6.60;;;2.40;;
39256;SDS011;67272;48.066;11.038;2023-10-13T05:32:29;4.82;;;2.60;;
39256;SDS011;67272;48.066;11.038;2023-10-13T05:35:15;4.22;;;2.70;;
39256;SDS011;67272;48.066;11.038;2023-10-13T05:38:00;5.15;;;2.75;;
39256;SDS011;67272;48.066;11.038;2023-10-13T05:40:56;4.55;;;3.10;;
39256;SDS011;67272;48.066;11.038;2023-10-13T05:43:42;6.03;;;3.40;;
39256;SDS011;67272;48.066;11.038;2023-10-13T05:46:28;4.85;;;3.45;;
39256;SDS011;67272;48.066;11.038;2023-10-13T05:49:04;4.65;;;2.95;;
39256;SDS011;67272;48.066;11.038;2023-10-13T05:51:31;3.55;;;3.25;;
39256;SDS011;67272;48.066;11.038;2023-10-13T05:53:59;3.97;;;3.30;;
39256;SDS011;67272;48.066;11.038;2023-10-13T05:56:41;5.25;;;3.33;;
39256;SDS011;67272;48.066;11.038;2023-10-13T05:59:26;5.75;;;3.67;;
39256;SDS011;67272;48.066;11.038;2023-10-13T06:02:12;4.80;;;3.08;;
39256;SDS011;67272;48.066;11.038;2023-10-13T06:04:57;6.20;;;3.08;;
39256;SDS011;67272;48.066;11.038;2023-10-13T06:07:41;5.82;;;3.28;;
39256;SDS011;67272;48.066;11.038;2023-10-13T06:10:26;10.02;;;3.65;;
39256;SDS011;67272;48.066;11.038;2023-10-13T06:13:11;5.97;;;3.20;;
39256;SDS011;67272;48.066;11.038;2023-10-13T06:15:57;5.63;;;3.22;;
39256;SDS011;67272;48.066;11.038;2023-10-13T06:18:42;5.78;;;3.17;;
39256;SDS011;67272;48.066;11.038;2023-10-13T06:21:26;4.93;;;2.40;;
39256;SDS011;67272;48.066;11.038;2023-10-13T06:24:12;3.50;;;2.55;;
39256;SDS011;67272;48.066;11.038;2023-10-13T06:26:57;4.28;;;2.65;;
39256;SDS011;67272;48.066;11.038;2023-10-13T06:29:42;5.53;;;2.58;;
39256;SDS011;67272;48.066;11.038;2023-10-13T06:32:12;3.95;;;2.95;;
39256;SDS011;67272;48.066;11.038;2023-10-13T06:34:38;5.32;;;2.97;;
39256;SDS011;67272;48.066;11.038;2023-10-13T06:37:14;4.80;;;3.25;;
39256;SDS011;67272;48.066;11.038;2023-10-13T06:39:55;4.30;;;2.92;;
39256;SDS011;67272;48.066;11.038;2023-10-13T06:42:25;4.72;;;3.10;;
39256;SDS011;67272;48.066;11.038;2023-10-13T06:44:55;4.90;;;3.50;;
39256;SDS011;67272;48.066;11.038;2023-10-13T06:47:25;5.93;;;3.45;;
39256;SDS011;67272;48.066;11.038;2023-10-13T06:49:53;3.63;;;3.20;;
39256;SDS011;67272;48.066;11.038;2023-10-13T06:52:22;5.82;;;3.22;;
39256;SDS011;67272;48.066;11.038;2023-10-13T06:54:52;7.05;;;2.85;;
39256;SDS011;67272;48.066;11.038;2023-10-13T06:57:18;5.80;;;2.70;;
39256;SDS011;67272;48.066;11.038;2023-10-13T06:59:54;4.43;;;2.75;;
39256;SDS011;67272;48.066;11.038;2023-10-13T07:02:21;7.40;;;2.92;;
39256;SDS011;67272;48.066;11.038;2023-10-13T07:04:51;4.70;;;2.97;;
39256;SDS011;67272;48.066;11.038;2023-10-13T07:07:25;4.03;;;3.13;;
39256;SDS011;67272;48.066;11.038;2023-10-13T07:09:54;4.38;;;3.00;;
39256;SDS011;67272;48.066;11.038;2023-10-13T07:12:20;4.50;;;2.85;;
39256;SDS011;67272;48.066;11.038;2023-10-13T07:15:01;6.32;;;3.00;;
39256;SDS011;67272;48.066;11.038;2023-10-13T07:17:46;4.78;;;3.10;;
39256;SDS011;67272;48.066;11.038;2023-10-13T07:20:12;5.80;;;3.05;;
39256;SDS011;67272;48.066;11.038;2023-10-13T07:22:54;5.65;;;3.20;;
39256;SDS011;67272;48.066;11.038;2023-10-13T07:25:29;5.20;;;3.30;;
39256;SDS011;67272;48.066;11.038;2023-10-13T07:28:01;4.47;;;2.75;;
39256;SDS011;67272;48.066;11.038;2023-10-13T07:30:34;3.45;;;3.13;;
39256;SDS011;67272;48.066;11.038;2023-10-13T07:33:19;5.15;;;2.83;;
39256;SDS011;67272;48.066;11.038;2023-10-13T07:35:46;4.57;;;3.00;;
39256;SDS011;67272;48.066;11.038;2023-10-13T07:38:20;6.03;;;2.80;;
39256;SDS011;67272;48.066;11.038;2023-10-13T07:40:46;5.70;;;2.80;;
39256;SDS011;67272;48.066;11.038;2023-10-13T07:43:16;4.22;;;2.63;;
39256;SDS011;67272;48.066;11.038;2023-10-13T07:45:49;4.57;;;2.95;;
39256;SDS011;67272;48.066;11.038;2023-10-13T07:48:18;4.18;;;2.78;;
39256;SDS011;67272;48.066;11.038;2023-10-13T07:51:07;4.63;;;2.80;;
39256;SDS011;67272;48.066;11.038;2023-10-13T07:53:39;4.53;;;2.50;;
39256;SDS011;67272;48.066;11.038;2023-10-13T07:56:09;5.45;;;2.60;;
39256;SDS011;67272;48.066;11.038;2023-10-13T07:58:44;6.25;;;2.70;;
39256;SDS011;67272;48.066;11.038;2023-10-13T08:01:35;5.78;;;2.20;;
39256;SDS011;67272;48.066;11.038;2023-10-13T08:04:02;3.05;;;2.25;;
39256;SDS011;67272;48.066;11.038;2023-10-13T08:06:40;6.05;;;2.78;;
39256;SDS011;67272;48.066;11.038;2023-10-13T08:09:08;3.45;;;2.30;;
39256;SDS011;67272;48.066;11.038;2023-10-13T08:12:01;3.20;;;2.17;;
39256;SDS011;67272;48.066;11.038;2023-10-13T08:14:36;4.78;;;2.25;;
39256;SDS011;67272;48.066;11.038;2023-10-13T08:17:05;4.13;;;2.13;;
39256;SDS011;67272;48.066;11.038;2023-10-13T08:19:51;5.80;;;2.72;;
39256;SDS011;67272;48.066;11.038;2023-10-13T08:22:17;3.78;;;2.25;;
39256;SDS011;67272;48.066;11.038;2023-10-13T08:24:44;3.95;;;2.28;;
39256;SDS011;67272;48.066;11.038;2023-10-13T08:27:20;3.35;;;2.03;;
39256;SDS011;67272;48.066;11.038;2023-10-13T08:29:59;3.92;;;2.30;;
39256;SDS011;67272;48.066;11.038;2023-10-13T08:33:01;4.40;;;2.33;;
39256;SDS011;67272;48.066;11.038;2023-10-13T08:35:42;5.38;;;2.22;;
39256;SDS011;67272;48.066;11.038;2023-10-13T08:38:19;5.88;;;2.75;;
39256;SDS011;67272;48.066;11.038;2023-10-13T08:41:00;6.07;;;2.38;;
39256;SDS011;67272;48.066;11.038;2023-10-13T08:43:54;5.13;;;2.33;;
39256;SDS011;67272;48.066;11.038;2023-10-13T08:46:31;3.40;;;1.90;;
39256;SDS011;67272;48.066;11.038;2023-10-13T08:49:17;3.90;;;2.17;;
39256;SDS011;67272;48.066;11.038;2023-10-13T08:51:44;4.20;;;2.20;;
39256;SDS011;67272;48.066;11.038;2023-10-13T08:54:30;8.98;;;2.28;;
39256;SDS011;67272;48.066;11.038;2023-10-13T08:57:13;3.35;;;2.20;;
39256;SDS011;67272;48.066;11.038;2023-10-13T08:59:55;3.78;;;2.33;;
39256;SDS011;67272;48.066;11.038;2023-10-13T09:02:44;3.85;;;2.72;;
39256;SDS011;67272;48.066;11.038;2023-10-13T09:05:49;4.90;;;2.63;;
39256;SDS011;67272;48.066;11.038;2023-10-13T09:08:34;4.10;;;2.45;;
39256;SDS011;67272;48.066;11.038;2023-10-13T09:11:04;4.95;;;2.50;;
39256;SDS011;67272;48.066;11.038;2023-10-13T09:13:37;5.35;;;2.58;;
39256;SDS011;67272;48.066;11.038;2023-10-13T09:16:10;5.20;;;3.05;;
39256;SDS011;67272;48.066;11.038;2023-10-13T09:18:41;4.05;;;2.40;;
39256;SDS011;67272;48.066;11.038;2023-10-13T09:21:11;4.63;;;2.47;;
39256;SDS011;67272;48.066;11.038;2023-10-13T09:23:56;3.88;;;2.58;;
39256;SDS011;67272;48.066;11.038;2023-10-13T09:26:42;5.25;;;3.05;;
39256;SDS011;67272;48.066;11.038;2023-10-13T09:29:18;4.47;;;2.63;;
39256;SDS011;67272;48.066;11.038;2023-10-13T09:31:58;5.25;;;2.35;;
39256;SDS011;67272;48.066;11.038;2023-10-13T09:34:25;6.85;;;2.83;;
39256;SDS011;67272;48.066;11.038;2023-10-13T09:36:58;6.18;;;2.80;;
39256;SDS011;67272;48.066;11.038;2023-10-13T09:39:25;5.45;;;2.35;;
39256;SDS011;67272;48.066;11.038;2023-10-13T09:42:11;3.22;;;2.30;;
39256;SDS011;67272;48.066;11.038;2023-10-13T09:44:38;3.40;;;2.33;;
39256;SDS011;67272;48.066;11.038;2023-10-13T09:47:07;4.18;;;2.45;;
39256;SDS011;67272;48.066;11.038;2023-10-13T09:49:36;4.93;;;2.42;;
39256;SDS011;67272;48.066;11.038;2023-10-13T09:52:13;3.25;;;2.28;;
39256;SDS011;67272;48.066;11.038;2023-10-13T09:54:48;6.22;;;2.70;;
39256;SDS011;67272;48.066;11.038;2023-10-13T09:57:24;3.40;;;2.45;;
39256;SDS011;67272;48.066;11.038;2023-10-13T09:59:59;5.18;;;2.60;;
39256;SDS011;67272;48.066;11.038;2023-10-13T10:02:36;3.47;;;2.95;;
39256;SDS011;67272;48.066;11.038;2023-10-13T10:05:09;6.05;;;2.50;;
39256;SDS011;67272;48.066;11.038;2023-10-13T10:07:54;5.50;;;2.33;;
39256;SDS011;67272;48.066;11.038;2023-10-13T10:10:21;4.22;;;2.65;;
39256;SDS011;67272;48.066;11.038;2023-10-13T10:12:59;6.13;;;2.50;;
39256;SDS011;67272;48.066;11.038;2023-10-13T10:15:34;5.07;;;2.47;;
39256;SDS011;67272;48.066;11.038;2023-10-13T10:18:21;4.28;;;2.17;;
39256;SDS011;67272;48.066;11.038;2023-10-13T10:20:47;4.55;;;2.70;;
39256;SDS011;67272;48.066;11.038;2023-10-13T10:23:26;6.00;;;2.28;;
39256;SDS011;67272;48.066;11.038;2023-10-13T10:25:57;3.45;;;2.10;;
39256;SDS011;67272;48.066;11.038;2023-10-13T10:28:35;4.43;;;2.40;;
39256;SDS011;67272;48.066;11.038;2023-10-13T10:31:14;3.55;;;2.25;;
39256;SDS011;67272;48.066;11.038;2023-10-13T10:33:45;4.30;;;2.47;;
39256;SDS011;67272;48.066;11.038;2023-10-13T10:36:30;7.78;;;2.97;;
39256;SDS011;67272;48.066;11.038;2023-10-13T10:38:59;8.50;;;2.90;;
39256;SDS011;67272;48.066;11.038;2023-10-13T10:41:26;5.55;;;2.80;;
39256;SDS011;67272;48.066;11.038;2023-10-13T10:44:23;5.75;;;2.85;;
39256;SDS011;67272;48.066;11.038;2023-10-13T10:47:12;6.35;;;2.58;;
39256;SDS011;67272;48.066;11.038;2023-10-13T10:50:00;5.72;;;2.63;;
39256;SDS011;67272;48.066;11.038;2023-10-13T10:52:33;6.80;;;2.75;;
39256;SDS011;67272;48.066;11.038;2023-10-13T10:55:04;7.03;;;2.63;;
39256;SDS011;67272;48.066;11.038;2023-10-13T10:57:36;5.03;;;2.85;;
39256;SDS011;67272;48.066;11.038;2023-10-13T11:00:18;6.60;;;2.65;;
39256;SDS011;67272;48.066;11.038;2023-10-13T11:02:57;6.50;;;3.10;;
39256;SDS011;67272;48.066;11.038;2023-10-13T11:05:26;4.57;;;2.80;;
39256;SDS011;67272;48.066;11.038;2023-10-13T11:07:57;5.07;;;2.38;;
39256;SDS011;67272;48.066;11.038;2023-10-13T11:10:24;6.97;;;2.60;;
39256;SDS011;67272;48.066;11.038;2023-10-13T11:12:58;8.07;;;2.67;;
39256;SDS011;67272;48.066;11.038;2023-10-13T11:18:29;5.15;;;2.83;;
39256;SDS011;67272;48.066;11.038;2023-10-13T11:21:05;6.75;;;2.97;;
39256;SDS011;67272;48.066;11.038;2023-10-13T11:23:33;6.03;;;3.10;;
39256;SDS011;67272;48.066;11.038;2023-10-13T11:26:02;5.38;;;2.70;;
39256;SDS011;67272;48.066;11.038;2023-10-13T11:28:30;5.57;;;2.88;;
39256;SDS011;67272;48.066;11.038;2023-10-13T11:30:59;6.05;;;3.10;;
39256;SDS011;67272;48.066;11.038;2023-10-13T11:33:36;4.22;;;2.67;;
39256;SDS011;67272;48.066;11.038;2023-10-13T11:36:16;5.10;;;2.88;;
39256;SDS011;67272;48.066;11.038;2023-10-13T11:38:44;5.68;;;2.67;;
39256;SDS011;67272;48.066;11.038;2023-10-13T11:41:13;5.07;;;2.70;;
39256;SDS011;67272;48.066;11.038;2023-10-13T11:43:47;6.05;;;2.70;;
39256;SDS011;67272;48.066;11.038;2023-10-13T11:46:17;4.82;;;2.63;;
39256;SDS011;67272;48.066;11.038;2023-10-13T11:49:06;6.00;;;2.58;;
39256;SDS011;67272;48.066;11.038;2023-10-13T11:51:41;4.75;;;3.03;;
39256;SDS011;67272;48.066;11.038;2023-10-13T11:54:14;6.32;;;2.60;;
39256;SDS011;67272;48.066;11.038;2023-10-13T11:56:47;7.18;;;2.55;;
39256;SDS011;67272;48.066;11.038;2023-10-13T11:59:13;3.60;;;2.58;;
39256;SDS011;67272;48.066;11.038;2023-10-13T12:01:50;4.72;;;2.60;;
39256;SDS011;67272;48.066;11.038;2023-10-13T12:04:35;7.28;;;3.00;;
39256;SDS011;67272;48.066;11.038;2023-10-13T12:07:17;6.53;;;2.80;;
39256;SDS011;67272;48.066;11.038;2023-10-13T12:09:52;5.43;;;2.67;;
39256;SDS011;67272;48.066;11.038;2023-10-13T12:12:23;3.45;;;2.65;;
39256;SDS011;67272;48.066;11.038;2023-10-13T12:14:49;3.15;;;2.30;;
39256;SDS011;67272;48.066;11.038;2023-10-13T12:17:29;4.85;;;2.70;;
39256;SDS011;67272;48.066;11.038;2023-10-13T12:20:05;4.28;;;2.40;;
39256;SDS011;67272;48.066;11.038;2023-10-13T12:25:23;6.95;;;3.05;;
39256;SDS011;67272;48.066;11.038;2023-10-13T12:28:11;4.93;;;2.58;;
39256;SDS011;67272;48.066;11.038;2023-10-13T12:31:03;6.15;;;2.95;;
39256;SDS011;67272;48.066;11.038;2023-10-13T12:33:32;4.47;;;2.55;;
39256;SDS011;67272;48.066;11.038;2023-10-13T12:36:02;5.32;;;2.80;;
39256;SDS011;67272;48.066;11.038;2023-10-13T12:38:33;6.25;;;2.60;;
39256;SDS011;67272;48.066;11.038;2023-10-13T12:41:40;5.57;;;2.72;;
39256;SDS011;67272;48.066;11.038;2023-10-13T12:44:25;5.80;;;2.58;;
39256;SDS011;67272;48.066;11.038;2023-10-13T12:47:10;4.53;;;2.35;;
39256;SDS011;67272;48.066;11.038;2023-10-13T12:49:55;5.07;;;2.42;;
39256;SDS011;67272;48.066;11.038;2023-10-13T12:52:30;6.97;;;3.00;;
39256;SDS011;67272;48.066;11.038;2023-10-13T12:55:02;4.20;;;2.70;;
39256;SDS011;67272;48.066;11.038;2023-10-13T12:57:34;6.07;;;2.78;;
39256;SDS011;67272;48.066;11.038;2023-10-13T13:00:09;7.10;;;2.70;;
39256;SDS011;67272;48.066;11.038;2023-10-13T13:02:42;4.80;;;2.42;;
39256;SDS011;67272;48.066;11.038;2023-10-13T13:05:11;4.85;;;2.42;;
39256;SDS011;67272;48.066;11.038;2023-10-13T13:07:41;4.95;;;2.75;;
39256;SDS011;67272;48.066;11.038;2023-10-13T13:10:20;5.00;;;2.53;;
39256;SDS011;67272;48.066;11.038;2023-10-13T13:13:00;5.57;;;3.00;;
39256;SDS011;67272;48.066;11.038;2023-10-13T13:15:27;4.30;;;2.60;;
39256;SDS011;67272;48.066;11.038;2023-10-13T13:17:53;6.78;;;2.83;;
39256;SDS011;67272;48.066;11.038;2023-10-13T13:20:23;4.05;;;2.53;;
39256;SDS011;67272;48.066;11.038;2023-10-13T13:22:59;6.50;;;2.90;;
39256;SDS011;67272;48.066;11.038;2023-10-13T13:25:27;4.70;;;2.65;;
39256;SDS011;67272;48.066;11.038;2023-10-13T13:27:58;3.33;;;2.60;;
39256;SDS011;67272;48.066;11.038;2023-10-13T13:30:30;4.85;;;2.67;;
39256;SDS011;67272;48.066;11.038;2023-10-13T13:33:03;4.47;;;2.72;;
39256;SDS011;67272;48.066;11.038;2023-10-13T13:35:35;6.53;;;2.50;;
39256;SDS011;67272;48.066;11.038;2023-10-13T13:38:04;3.58;;;2.67;;
39256;SDS011;67272;48.066;11.038;2023-10-13T13:40:48;5.63;;;2.80;;
39256;SDS011;67272;48.066;11.038;2023-10-13T13:43:20;5.05;;;3.17;;
39256;SDS011;67272;48.066;11.038;2023-10-13T13:46:06;6.65;;;3.05;;
39256;SDS011;67272;48.066;11.038;2023-10-13T13:48:36;3.55;;;2.65;;
39256;SDS011;67272;48.066;11.038;2023-10-13T13:51:06;6.13;;;3.05;;
39256;SDS011;67272;48.066;11.038;2023-10-13T13:53:40;5.28;;;2.80;;
39256;SDS011;67272;48.066;11.038;2023-10-13T13:56:16;4.85;;;2.95;;
39256;SDS011;67272;48.066;11.038;2023-10-13T13:58:44;5.18;;;2.53;;
39256;SDS011;67272;48.066;11.038;2023-10-13T14:01:13;4.43;;;2.70;;
39256;SDS011;67272;48.066;11.038;2023-10-13T14:03:43;4.90;;;2.60;;
39256;SDS011;67272;48.066;11.038;2023-10-13T14:06:18;4.22;;;2.33;;
39256;SDS011;67272;48.066;11.038;2023-10-13T14:08:55;4.72;;;2.72;;
39256;SDS011;67272;48.066;11.038;2023-10-13T14:11:25;7.35;;;2.70;;
39256;SDS011;67272;48.066;11.038;2023-10-13T14:14:03;4.18;;;2.70;;
39256;SDS011;67272;48.066;11.038;2023-10-13T14:16:37;4.78;;;2.90;;
39256;SDS011;67272;48.066;11.038;2023-10-13T14:19:03;3.85;;;2.50;;
39256;SDS011;67272;48.066;11.038;2023-10-13T14:21:33;4.35;;;2.80;;
39256;SDS011;67272;48.066;11.038;2023-10-13T14:24:00;4.47;;;2.53;;
39256;SDS011;67272;48.066;11.038;2023-10-13T14:26:30;4.22;;;3.05;;
39256;SDS011;67272;48.066;11.038;2023-10-13T14:28:58;4.97;;;2.50;;
39256;SDS011;67272;48.066;11.038;2023-10-13T14:31:31;4.30;;;2.50;;
39256;SDS011;67272;48.066;11.038;2023-10-13T14:34:04;4.57;;;2.78;;
39256;SDS011;67272;48.066;11.038;2023-10-13T14:36:42;4.50;;;2.90;;
39256;SDS011;67272;48.066;11.038;2023-10-13T14:39:13;4.90;;;2.80;;
39256;SDS011;67272;48.066;11.038;2023-10-13T14:41:40;7.00;;;3.03;;
39256;SDS011;67272;48.066;11.038;2023-10-13T14:44:06;4.30;;;2.85;;
39256;SDS011;67272;48.066;11.038;2023-10-13T14:46:40;7.32;;;3.13;;
39256;SDS011;67272;48.066;11.038;2023-10-13T14:49:09;4.35;;;3.03;;
39256;SDS011;67272;48.066;11.038;2023-10-13T14:51:44;5.30;;;3.03;;
39256;SDS011;67272;48.066;11.038;2023-10-13T14:54:11;5.53;;;2.63;;
39256;SDS011;67272;48.066;11.038;2023-10-13T14:56:42;5.75;;;2.65;;
39256;SDS011;67272;48.066;11.038;2023-10-13T14:59:09;6.07;;;2.75;;
39256;SDS011;67272;48.066;11.038;2023-10-13T15:01:42;5.72;;;3.08;;
39256;SDS011;67272;48.066;11.038;2023-10-13T15:04:09;5.53;;;2.80;;
39256;SDS011;67272;48.066;11.038;2023-10-13T15:06:35;6.00;;;3.10;;
39256;SDS011;67272;48.066;11.038;2023-10-13T15:09:05;4.25;;;2.90;;
39256;SDS011;67272;48.066;11.038;2023-10-13T15:11:36;4.55;;;2.85;;
39256;SDS011;67272;48.066;11.038;2023-10-13T15:14:05;5.00;;;2.78;;
39256;SDS011;67272;48.066;11.038;2023-10-13T15:16:32;5.22;;;2.75;;
39256;SDS011;67272;48.066;11.038;2023-10-13T15:19:01;6.18;;;3.00;;
39256;SDS011;67272;48.066;11.038;2023-10-13T15:21:32;4.10;;;3.08;;
39256;SDS011;67272;48.066;11.038;2023-10-13T15:24:08;4.47;;;2.80;;
39256;SDS011;67272;48.066;11.038;2023-10-13T15:26:47;5.28;;;2.60;;
39256;SDS011;67272;48.066;11.038;2023-10-13T15:29:14;4.88;;;2.65;;
39256;SDS011;67272;48.066;11.038;2023-10-13T15:31:45;4.85;;;2.67;;
39256;SDS011;67272;48.066;11.038;2023-10-13T15:34:23;8.18;;;3.22;;